Dereham, United Kingdom
Current Conditions -  °F | °C
As of 3:50 PM on Sunday 23 Nov 2014 (Local Time) from EGSH Reporting Station
Moderate Rain Moderate Rain  
Wind Chill:   Ceiling: 1200
Heat Index:   Visibility: 6mi
Dew Point:   Wind: 12mph
Humidity: 93%   Direction: 320°NW
Pressure: 30"   Gusts: NA
Location:  52.64°N, 0.97°E
Report Text: EGSH 231550Z 32010KT 9000 RA SCT009 BKN012 08/07 Q1016 TEMPO BKN015
Loading
Personal Weather Stations






























Interactive Weather Map New forecast layout! Learn more

10-Day Weather Forecast

Advertisements
Track Severe Weather on mobile